createdAt,value
2023-05-23T00:01:43.643Z,7.50
2023-05-23T00:04:17.001Z,7.25
2023-05-23T00:06:50.535Z,6.95
2023-05-23T00:09:17.864Z,6.85
2023-05-23T00:11:45.982Z,6.70
2023-05-23T00:14:17.006Z,6.70
2023-05-23T00:16:46.495Z,6.88
2023-05-23T00:19:17.021Z,6.50
2023-05-23T00:21:48.718Z,7.50
2023-05-23T00:24:19.010Z,6.63
2023-05-23T00:26:46.835Z,7.30
2023-05-23T00:29:16.665Z,7.28
2023-05-23T00:31:47.900Z,7.75
2023-05-23T00:34:17.931Z,7.35
2023-05-23T00:36:48.026Z,6.88
2023-05-23T00:39:20.372Z,7.43
2023-05-23T00:41:52.338Z,7.30
2023-05-23T00:44:20.760Z,7.15
2023-05-23T00:46:55.476Z,7.75
2023-05-23T00:49:23.007Z,7.28
2023-05-23T00:51:52.154Z,7.32
2023-05-23T00:54:31.495Z,8.07
2023-05-23T00:56:59.337Z,7.57
2023-05-23T00:59:27.120Z,8.00
2023-05-23T01:01:57.439Z,6.90
2023-05-23T01:04:28.526Z,7.63
2023-05-23T01:06:56.310Z,7.28
2023-05-23T01:09:25.912Z,7.20
2023-05-23T01:12:11.490Z,7.88
2023-05-23T01:15:04.545Z,7.28
2023-05-23T01:18:21.603Z,8.05
2023-05-23T01:20:59.748Z,8.90
2023-05-23T01:24:16.779Z,8.25
2023-05-23T01:27:05.905Z,8.02
2023-05-23T01:29:38.044Z,8.50
2023-05-23T01:32:11.593Z,8.40
2023-05-23T01:34:39.903Z,8.80
2023-05-23T01:37:11.864Z,8.00
2023-05-23T01:39:39.221Z,7.75
2023-05-23T01:42:07.344Z,8.13
2023-05-23T01:44:36.022Z,9.30
2023-05-23T01:47:09.830Z,7.75
2023-05-23T01:49:38.371Z,9.13
2023-05-23T01:52:12.134Z,7.10
2023-05-23T01:54:43.465Z,8.25
2023-05-23T01:57:12.039Z,7.93
2023-05-23T01:59:39.187Z,7.47
2023-05-23T02:02:06.712Z,9.27
2023-05-23T02:04:34.182Z,8.20
2023-05-23T02:07:01.324Z,7.68
2023-05-23T02:09:28.378Z,7.75
2023-05-23T02:11:55.641Z,7.57
2023-05-23T02:14:24.027Z,8.30
2023-05-23T02:16:53.897Z,8.25
2023-05-23T02:19:21.204Z,7.97
2023-05-23T02:21:48.281Z,8.93
2023-05-23T02:24:15.385Z,7.38
2023-05-23T02:26:42.445Z,8.02
2023-05-23T02:29:09.503Z,7.63
2023-05-23T02:31:37.065Z,8.13
2023-05-23T02:34:04.175Z,8.57
2023-05-23T02:36:33.575Z,8.23
2023-05-23T02:39:00.732Z,8.32
2023-05-23T02:41:27.734Z,7.45
2023-05-23T02:43:55.797Z,9.00
2023-05-23T02:46:23.006Z,7.93
2023-05-23T02:48:50.442Z,7.72
2023-05-23T02:51:17.465Z,7.35
2023-05-23T02:53:44.505Z,7.38
2023-05-23T02:56:13.530Z,8.35
2023-05-23T02:58:40.690Z,7.93
2023-05-23T03:01:08.526Z,7.53
2023-05-23T03:03:35.956Z,8.05
2023-05-23T03:06:05.153Z,7.32
2023-05-23T03:08:32.374Z,7.10
2023-05-23T03:10:59.592Z,7.25
2023-05-23T03:13:26.970Z,7.97
2023-05-23T03:15:54.068Z,7.70
2023-05-23T03:18:21.286Z,7.68
2023-05-23T03:20:48.434Z,7.70
2023-05-23T03:23:15.547Z,7.53
2023-05-23T03:25:43.950Z,7.43
2023-05-23T03:28:12.372Z,7.57
2023-05-23T03:30:39.571Z,6.70
2023-05-23T03:33:07.550Z,7.18
2023-05-23T03:35:34.801Z,7.03
2023-05-23T03:38:01.964Z,6.70
2023-05-23T03:40:29.171Z,6.47
2023-05-23T03:43:22.575Z,6.43
2023-05-23T03:45:49.796Z,6.65
2023-05-23T03:48:16.924Z,6.63
2023-05-23T03:50:44.054Z,6.22
2023-05-23T03:53:11.131Z,6.50
2023-05-23T03:55:39.989Z,6.57
2023-05-23T03:58:07.359Z,6.80
2023-05-23T04:00:34.560Z,6.18
2023-05-23T04:03:01.741Z,6.22
2023-05-23T04:05:28.887Z,6.35
2023-05-23T04:07:55.995Z,5.85
2023-05-23T04:10:23.267Z,6.47
2023-05-23T04:12:51.728Z,5.50
2023-05-23T04:15:21.555Z,6.35
2023-05-23T04:17:48.810Z,5.68
2023-05-23T04:20:16.102Z,5.75
2023-05-23T04:22:43.363Z,5.30
2023-05-23T04:25:10.437Z,5.38
2023-05-23T04:27:40.547Z,5.50
2023-05-23T04:30:10.065Z,5.15
2023-05-23T04:32:38.317Z,7.45
2023-05-23T04:35:05.997Z,4.93
2023-05-23T04:37:33.186Z,5.90
2023-05-23T04:40:00.839Z,5.35
2023-05-23T04:42:29.441Z,5.43
2023-05-23T04:44:59.584Z,5.05
2023-05-23T04:47:28.691Z,4.80
2023-05-23T04:49:57.485Z,5.97
2023-05-23T04:52:25.562Z,5.60
2023-05-23T04:54:54.268Z,5.63
2023-05-23T04:57:22.195Z,4.45
2023-05-23T04:59:49.268Z,4.72
2023-05-23T05:02:16.315Z,4.70
2023-05-23T05:04:43.341Z,4.90
2023-05-23T05:07:10.596Z,4.82
2023-05-23T05:09:37.664Z,5.00
2023-05-23T05:12:04.898Z,4.95
2023-05-23T05:14:31.998Z,4.35
2023-05-23T05:16:59.374Z,5.10
2023-05-23T05:19:26.705Z,4.15
2023-05-23T05:21:53.818Z,4.15
2023-05-23T05:24:22.595Z,4.55
2023-05-23T05:26:49.889Z,4.45
2023-05-23T05:29:17.007Z,4.13
2023-05-23T05:31:45.306Z,3.90
2023-05-23T05:34:13.221Z,4.45
2023-05-23T05:36:46.007Z,4.40
2023-05-23T05:39:17.031Z,3.70
2023-05-23T05:41:44.039Z,4.00
2023-05-23T05:44:11.128Z,3.78
2023-05-23T05:46:38.207Z,4.05
2023-05-23T05:49:05.272Z,4.10
2023-05-23T05:51:32.390Z,4.22
2023-05-23T05:53:59.491Z,3.55
2023-05-23T05:56:27.965Z,4.35
2023-05-23T05:58:55.099Z,4.32
2023-05-23T06:01:22.165Z,3.70
2023-05-23T06:03:49.380Z,4.13
2023-05-23T06:06:16.952Z,4.30
2023-05-23T06:08:44.634Z,3.70
2023-05-23T06:11:12.285Z,4.57
2023-05-23T06:13:39.447Z,4.18
2023-05-23T06:16:07.122Z,4.15
2023-05-23T06:18:34.169Z,3.47
2023-05-23T06:21:01.406Z,3.42
2023-05-23T06:23:28.429Z,3.85
2023-05-23T06:25:55.614Z,3.60
2023-05-23T06:28:22.663Z,3.58
2023-05-23T06:30:49.809Z,3.40
2023-05-23T06:33:17.204Z,3.53
2023-05-23T06:35:44.282Z,3.50
2023-05-23T06:38:11.500Z,3.50
2023-05-23T06:40:38.595Z,3.38
2023-05-23T06:43:05.777Z,3.00
2023-05-23T06:45:35.179Z,3.47
2023-05-23T06:48:02.401Z,3.38
2023-05-23T06:50:29.835Z,3.92
2023-05-23T06:52:56.862Z,3.33
2023-05-23T06:55:24.481Z,3.83
2023-05-23T06:57:52.315Z,3.00
2023-05-23T07:00:20.216Z,2.90
2023-05-23T07:02:48.913Z,3.05
2023-05-23T07:05:16.463Z,3.03
2023-05-23T07:07:44.076Z,2.75
2023-05-23T07:10:11.527Z,3.33
2023-05-23T07:12:38.664Z,3.45
2023-05-23T07:15:06.483Z,2.83
2023-05-23T07:17:33.614Z,3.03
2023-05-23T07:20:01.386Z,3.22
2023-05-23T07:22:28.385Z,3.30
2023-05-23T07:24:55.512Z,3.15
2023-05-23T07:27:22.694Z,2.67
2023-05-23T07:29:50.907Z,2.97
2023-05-23T07:32:17.936Z,3.20
2023-05-23T07:34:44.977Z,2.80
2023-05-23T07:37:12.076Z,3.92
2023-05-23T07:39:39.099Z,3.67
2023-05-23T07:42:06.133Z,2.72
2023-05-23T07:44:33.163Z,2.97
2023-05-23T07:47:00.355Z,2.70
2023-05-23T07:49:27.452Z,3.20
2023-05-23T07:51:54.474Z,2.67
2023-05-23T07:54:21.557Z,2.92
2023-05-23T07:56:48.589Z,2.53
2023-05-23T07:59:15.755Z,3.13
2023-05-23T08:01:42.987Z,3.05
2023-05-23T08:04:10.068Z,2.47
2023-05-23T08:06:38.677Z,2.60
2023-05-23T08:09:09.936Z,2.63
2023-05-23T08:11:37.026Z,3.22
2023-05-23T08:14:04.118Z,2.63
2023-05-23T08:16:31.194Z,3.35
2023-05-23T08:18:58.301Z,3.13
2023-05-23T08:21:25.416Z,2.97
2023-05-23T08:23:52.463Z,2.78
2023-05-23T08:26:19.618Z,2.88
2023-05-23T08:28:46.944Z,2.47
2023-05-23T08:31:14.032Z,3.00
2023-05-23T08:33:41.086Z,2.70
2023-05-23T08:36:08.226Z,2.50
2023-05-23T08:38:35.270Z,2.40
2023-05-23T08:41:02.732Z,2.50
2023-05-23T08:43:29.983Z,2.80
2023-05-23T08:45:57.401Z,3.00
2023-05-23T08:48:27.102Z,2.42
2023-05-23T08:50:54.393Z,3.45
2023-05-23T08:53:23.611Z,2.47
2023-05-23T08:55:55.870Z,2.75
2023-05-23T08:58:24.876Z,3.00
2023-05-23T09:00:54.041Z,2.50
2023-05-23T09:03:22.241Z,2.30
2023-05-23T09:05:50.711Z,2.40
2023-05-23T09:08:19.268Z,3.28
2023-05-23T09:10:50.075Z,2.70
2023-05-23T09:13:17.896Z,2.70
2023-05-23T09:16:00.397Z,2.75
2023-05-23T09:18:28.341Z,2.22
2023-05-23T09:20:55.428Z,2.78
2023-05-23T09:23:22.487Z,2.67
2023-05-23T09:25:49.541Z,2.30
2023-05-23T09:28:16.607Z,3.60
2023-05-23T09:30:43.685Z,2.33
2023-05-23T09:33:14.168Z,2.72
2023-05-23T09:35:46.319Z,2.50
2023-05-23T09:38:13.762Z,2.50
2023-05-23T09:40:45.822Z,2.03
2023-05-23T09:43:12.857Z,2.35
2023-05-23T09:45:39.862Z,2.47
2023-05-23T09:48:14.188Z,2.20
2023-05-23T09:50:41.854Z,2.28
2023-05-23T09:53:09.170Z,2.50
2023-05-23T09:55:36.976Z,2.15
2023-05-23T09:58:04.994Z,2.60
2023-05-23T10:00:33.212Z,2.40
2023-05-23T10:03:13.168Z,2.35
2023-05-23T10:05:53.389Z,2.70
2023-05-23T10:08:36.570Z,2.97
2023-05-23T10:11:15.532Z,2.45
2023-05-23T10:13:49.221Z,2.72
2023-05-23T10:16:40.325Z,2.42
2023-05-23T10:19:20.741Z,2.60
2023-05-23T10:21:56.782Z,2.55
2023-05-23T10:24:25.924Z,3.03
2023-05-23T10:26:55.285Z,2.40
2023-05-23T10:29:23.350Z,3.15
2023-05-23T10:31:52.366Z,2.60
2023-05-23T10:34:31.804Z,2.78
2023-05-23T10:37:07.281Z,2.50
2023-05-23T10:39:46.092Z,2.60
2023-05-23T10:42:49.830Z,2.20
2023-05-23T10:45:22.500Z,2.67
2023-05-23T10:47:53.726Z,2.58
2023-05-23T10:50:37.172Z,2.28
2023-05-23T10:53:06.196Z,3.30
2023-05-23T10:55:36.684Z,2.60
2023-05-23T10:58:19.819Z,2.20
2023-05-23T11:01:01.592Z,2.70
2023-05-23T11:04:18.444Z,2.75
2023-05-23T11:06:45.066Z,2.92
2023-05-23T11:09:21.908Z,2.42
2023-05-23T11:11:57.467Z,2.90
2023-05-23T11:14:33.510Z,2.95
2023-05-23T11:17:15.137Z,2.70
2023-05-23T11:20:07.313Z,2.88
2023-05-23T11:22:36.081Z,2.70
2023-05-23T11:25:10.191Z,3.45
2023-05-23T11:27:40.704Z,2.65
2023-05-23T11:30:14.282Z,2.63
2023-05-23T11:32:42.871Z,2.35
2023-05-23T11:35:11.864Z,3.03
2023-05-23T11:37:39.979Z,2.83
2023-05-23T11:40:36.468Z,2.65
2023-05-23T11:43:15.172Z,2.90
2023-05-23T11:45:42.865Z,3.13
2023-05-23T11:48:12.028Z,2.33
2023-05-23T11:51:05.380Z,2.63
2023-05-23T11:53:33.024Z,2.88
2023-05-23T11:56:03.283Z,2.65
2023-05-23T11:58:36.414Z,2.53
2023-05-23T12:01:09.479Z,2.17
2023-05-23T12:03:47.682Z,2.72
2023-05-23T12:06:23.636Z,2.67
2023-05-23T12:08:52.824Z,2.83
2023-05-23T12:11:20.032Z,2.83
2023-05-23T12:13:47.212Z,2.55
2023-05-23T12:16:15.918Z,2.72
2023-05-23T12:18:43.560Z,2.35
2023-05-23T12:21:11.340Z,3.17
2023-05-23T12:23:40.587Z,2.70
2023-05-23T12:26:09.970Z,2.97
2023-05-23T12:28:38.891Z,2.85
2023-05-23T12:31:10.692Z,2.90
2023-05-23T12:33:45.367Z,3.03
2023-05-23T12:36:12.993Z,2.80
2023-05-23T12:38:45.436Z,2.80
2023-05-23T12:41:22.345Z,3.15
2023-05-23T12:43:54.866Z,2.70
2023-05-23T12:46:26.623Z,2.70
2023-05-23T12:48:54.478Z,3.75
2023-05-23T12:51:22.248Z,3.13
2023-05-23T12:53:49.425Z,2.70
2023-05-23T12:56:16.577Z,2.83
2023-05-23T12:58:44.005Z,3.15
2023-05-23T13:01:11.376Z,2.83
2023-05-23T13:03:38.628Z,3.28
2023-05-23T13:06:06.857Z,3.25
2023-05-23T13:08:33.896Z,3.05
2023-05-23T13:11:01.058Z,2.85
2023-05-23T13:13:28.315Z,3.00
2023-05-23T13:15:56.408Z,3.55
2023-05-23T13:18:23.720Z,2.75
2023-05-23T13:20:51.203Z,2.85
2023-05-23T13:23:18.270Z,2.58
2023-05-23T13:25:45.390Z,2.63
2023-05-23T13:28:12.456Z,2.70
2023-05-23T13:30:39.687Z,3.28
2023-05-23T13:33:07.043Z,2.95
2023-05-23T13:35:34.151Z,2.83
2023-05-23T13:38:01.323Z,2.88
2023-05-23T13:40:28.362Z,2.83
2023-05-23T13:42:55.946Z,3.10
2023-05-23T13:45:23.390Z,3.13
2023-05-23T13:47:50.737Z,3.10
2023-05-23T13:50:18.031Z,3.05
2023-05-23T13:52:49.116Z,3.78
2023-05-23T13:55:17.484Z,2.97
2023-05-23T13:57:44.767Z,3.65
2023-05-23T14:00:12.669Z,3.00
2023-05-23T14:02:39.919Z,3.38
2023-05-23T14:05:08.254Z,3.25
2023-05-23T14:07:36.510Z,3.58
2023-05-23T14:10:05.190Z,3.25
2023-05-23T14:12:32.223Z,3.20
2023-05-23T14:14:59.245Z,3.15
2023-05-23T14:17:26.794Z,3.22
2023-05-23T14:19:53.916Z,3.65
2023-05-23T14:22:20.916Z,2.90
2023-05-23T14:24:48.010Z,2.90
2023-05-23T14:27:15.022Z,3.30
2023-05-23T14:29:46.390Z,3.67
2023-05-23T14:32:13.998Z,3.13
2023-05-23T14:34:41.645Z,3.00
2023-05-23T14:37:08.718Z,3.10
2023-05-23T14:39:36.140Z,2.92
2023-05-23T14:42:03.832Z,3.47
2023-05-23T14:44:31.060Z,3.83
2023-05-23T14:46:58.263Z,2.88
2023-05-23T14:49:25.316Z,3.05
2023-05-23T14:51:52.420Z,6.88
2023-05-23T14:54:19.919Z,3.88
2023-05-23T14:56:47.067Z,3.33
2023-05-23T14:59:14.302Z,3.17
2023-05-23T15:01:41.807Z,3.25
2023-05-23T15:04:10.019Z,4.28
2023-05-23T15:06:39.241Z,3.40
2023-05-23T15:09:07.659Z,3.53
2023-05-23T15:11:38.913Z,3.53
2023-05-23T15:14:06.365Z,3.25
2023-05-23T15:16:35.240Z,3.35
2023-05-23T15:19:02.637Z,3.90
2023-05-23T15:21:29.846Z,3.50
2023-05-23T15:23:57.796Z,3.58
2023-05-23T15:26:25.366Z,3.72
2023-05-23T15:28:52.400Z,3.37
2023-05-23T15:31:19.542Z,3.60
2023-05-23T15:33:47.910Z,4.00
2023-05-23T15:36:15.214Z,3.70
2023-05-23T15:38:43.779Z,3.85
2023-05-23T15:41:11.519Z,4.00
2023-05-23T15:43:38.637Z,3.90
2023-05-23T15:46:05.773Z,3.88
2023-05-23T15:48:32.946Z,3.80
2023-05-23T15:51:00.084Z,4.05
2023-05-23T15:53:27.156Z,3.80
2023-05-23T15:55:54.198Z,3.70
2023-05-23T15:58:21.223Z,3.55
2023-05-23T16:00:48.234Z,3.40
2023-05-23T16:03:15.322Z,3.28
2023-05-23T16:05:42.531Z,3.63
2023-05-23T16:08:09.954Z,3.85
2023-05-23T16:10:37.026Z,3.78
2023-05-23T16:13:04.152Z,3.75
2023-05-23T16:15:31.250Z,3.75
2023-05-23T16:17:58.762Z,3.40
2023-05-23T16:20:26.030Z,3.60
2023-05-23T16:22:53.129Z,3.97
2023-05-23T16:25:20.181Z,3.83
2023-05-23T16:27:47.219Z,3.63
2023-05-23T16:30:14.385Z,3.60
2023-05-23T16:32:41.515Z,3.75
2023-05-23T16:35:10.279Z,4.20
2023-05-23T16:37:38.596Z,3.90
2023-05-23T16:40:14.058Z,3.66
2023-05-23T16:42:41.299Z,3.60
2023-05-23T16:45:08.693Z,4.50
2023-05-23T16:47:36.340Z,3.75
2023-05-23T16:50:04.979Z,3.97
2023-05-23T16:52:32.156Z,3.53
2023-05-23T16:54:59.192Z,3.38
2023-05-23T16:57:26.271Z,4.05
2023-05-23T16:59:53.300Z,4.10
2023-05-23T17:02:20.847Z,4.38
2023-05-23T17:04:48.241Z,3.75
2023-05-23T17:07:15.890Z,4.25
2023-05-23T17:09:43.281Z,3.88
2023-05-23T17:12:10.404Z,4.07
2023-05-23T17:14:37.539Z,4.03
2023-05-23T17:17:05.450Z,4.38
2023-05-23T17:19:32.630Z,4.45
2023-05-23T17:21:59.780Z,4.13
2023-05-23T17:24:28.034Z,4.38
2023-05-23T17:26:55.072Z,4.18
2023-05-23T17:29:22.169Z,4.68
2023-05-23T17:31:49.275Z,4.40
2023-05-23T17:34:16.985Z,4.35
2023-05-23T17:36:43.979Z,3.70
2023-05-23T17:39:11.006Z,4.63
2023-05-23T17:41:38.061Z,4.38
2023-05-23T17:44:05.108Z,4.47
2023-05-23T17:46:32.211Z,4.68
2023-05-23T17:48:59.277Z,4.00
2023-05-23T17:51:26.423Z,4.10
2023-05-23T17:53:53.930Z,4.90
2023-05-23T17:56:24.823Z,4.65
2023-05-23T17:58:52.805Z,4.13
2023-05-23T18:12:19.952Z,4.53
2023-05-23T18:14:48.050Z,4.63
2023-05-23T18:17:15.215Z,3.72
2023-05-23T18:19:42.415Z,5.10
2023-05-23T18:22:09.663Z,4.43
2023-05-23T18:24:36.875Z,4.40
2023-05-23T18:27:04.769Z,4.57
2023-05-23T18:29:31.878Z,4.15
2023-05-23T18:31:58.944Z,4.70
2023-05-23T18:34:28.480Z,4.28
2023-05-23T18:36:56.417Z,4.53
2023-05-23T18:39:23.871Z,5.28
2023-05-23T18:41:50.928Z,4.85
2023-05-23T18:44:20.654Z,4.72
2023-05-23T18:46:48.309Z,4.60
2023-05-23T18:49:15.810Z,4.78
2023-05-23T18:51:43.309Z,4.30
2023-05-23T18:54:10.383Z,5.68
2023-05-23T18:56:37.448Z,5.75
2023-05-23T18:59:04.537Z,4.85
2023-05-23T19:01:31.602Z,6.47
2023-05-23T19:03:58.744Z,6.30
2023-05-23T19:06:26.836Z,5.68
2023-05-23T19:08:53.893Z,6.68
2023-05-23T19:11:21.826Z,5.82
2023-05-23T19:13:48.879Z,4.82
2023-05-23T19:16:17.424Z,5.90
2023-05-23T19:18:45.182Z,5.90
2023-05-23T19:21:12.882Z,5.88
2023-05-23T19:23:40.090Z,6.60
2023-05-23T19:26:07.727Z,6.57
2023-05-23T19:28:35.243Z,6.15
2023-05-23T19:31:02.282Z,6.13
2023-05-23T19:33:29.338Z,6.55
2023-05-23T19:35:56.343Z,6.68
2023-05-23T19:38:23.424Z,6.35
2023-05-23T19:40:50.506Z,7.18
2023-05-23T19:43:17.710Z,6.53
2023-05-23T19:45:44.865Z,7.05
2023-05-23T19:48:12.297Z,7.28
2023-05-23T19:50:41.043Z,6.40
2023-05-23T19:53:08.232Z,5.80
2023-05-23T19:55:35.465Z,6.32
2023-05-23T19:58:02.652Z,6.80
2023-05-23T20:00:29.762Z,6.55
2023-05-23T20:02:56.954Z,6.32
2023-05-23T20:05:24.301Z,6.18
2023-05-23T20:07:53.139Z,6.25
2023-05-23T20:10:20.247Z,6.55
2023-05-23T20:12:48.080Z,6.30
2023-05-23T20:15:17.656Z,5.93
2023-05-23T20:17:48.989Z,6.13
2023-05-23T20:20:16.096Z,6.35
2023-05-23T20:22:43.187Z,6.10
2023-05-23T20:25:10.453Z,6.22
2023-05-23T20:27:37.523Z,7.28
2023-05-23T20:30:05.145Z,5.68
2023-05-23T20:32:32.266Z,6.50
2023-05-23T20:34:59.286Z,6.63
2023-05-23T20:37:28.335Z,7.15
2023-05-23T20:39:55.412Z,6.95
2023-05-23T20:42:22.641Z,6.55
2023-05-23T20:44:49.653Z,7.32
2023-05-23T20:47:17.723Z,6.32
2023-05-23T20:49:44.904Z,6.78
2023-05-23T20:52:11.947Z,7.15
2023-05-23T20:54:39.043Z,6.13
2023-05-23T20:57:06.198Z,6.65
2023-05-23T20:59:33.250Z,6.07
2023-05-23T21:02:00.407Z,7.30
2023-05-23T21:04:27.540Z,6.25
2023-05-23T21:06:54.560Z,7.03
2023-05-23T21:09:21.859Z,6.05
2023-05-23T21:11:48.939Z,5.95
2023-05-23T21:14:16.026Z,6.40
2023-05-23T21:16:43.128Z,6.03
2023-05-23T21:19:10.201Z,5.97
2023-05-23T21:21:37.668Z,6.10
2023-05-23T21:24:06.424Z,6.07
2023-05-23T21:26:33.631Z,6.18
2023-05-23T21:29:00.882Z,6.15
2023-05-23T21:31:40.390Z,6.22
2023-05-23T21:34:22.354Z,6.22
2023-05-23T21:36:51.499Z,6.07
2023-05-23T21:39:18.567Z,6.70
2023-05-23T21:41:45.693Z,5.63
2023-05-23T21:44:17.843Z,6.95
2023-05-23T21:46:45.568Z,6.80
2023-05-23T21:49:12.929Z,5.82
2023-05-23T21:51:39.979Z,7.05
2023-05-23T21:54:07.058Z,6.22
2023-05-23T21:56:34.103Z,7.13
2023-05-23T21:59:01.186Z,6.60
2023-05-23T22:01:28.237Z,6.13
2023-05-23T22:03:55.414Z,6.25
2023-05-23T22:06:22.528Z,6.15
2023-05-23T22:08:49.595Z,6.78
2023-05-23T22:11:16.828Z,6.70
2023-05-23T22:13:44.092Z,6.22
2023-05-23T22:16:11.256Z,7.20
2023-05-23T22:18:51.430Z,6.35
2023-05-23T22:21:18.823Z,6.90
2023-05-23T22:23:46.091Z,6.40
2023-05-23T22:26:14.062Z,6.55
2023-05-23T22:28:41.194Z,6.63
2023-05-23T22:31:09.812Z,5.88
2023-05-23T22:33:38.299Z,6.50
2023-05-23T22:36:06.322Z,7.05
2023-05-23T22:38:33.502Z,6.50
2023-05-23T22:41:00.605Z,6.60
2023-05-23T22:43:29.018Z,7.13
2023-05-23T22:45:57.092Z,7.38
2023-05-23T22:48:28.060Z,7.03
2023-05-23T22:50:55.147Z,6.07
2023-05-23T22:53:25.106Z,6.47
2023-05-23T22:55:52.307Z,6.45
2023-05-23T22:58:19.371Z,7.05
2023-05-23T23:00:46.492Z,6.75
2023-05-23T23:03:15.605Z,6.50
2023-05-23T23:05:42.867Z,7.80
2023-05-23T23:08:09.988Z,7.05
2023-05-23T23:10:37.081Z,6.30
2023-05-23T23:13:04.187Z,6.93
2023-05-23T23:15:33.887Z,6.80
2023-05-23T23:18:01.371Z,6.47
2023-05-23T23:20:29.410Z,6.82
2023-05-23T23:22:57.607Z,6.43
2023-05-23T23:25:24.795Z,6.20
2023-05-23T23:27:51.916Z,6.20
2023-05-23T23:30:18.983Z,6.35
2023-05-23T23:32:46.045Z,7.00
2023-05-23T23:35:13.139Z,5.88
2023-05-23T23:37:40.488Z,5.90
2023-05-23T23:40:08.790Z,6.05
2023-05-23T23:42:35.850Z,6.88
2023-05-23T23:45:03.829Z,6.28
2023-05-23T23:47:32.597Z,6.35
2023-05-23T23:50:00.216Z,6.05
2023-05-23T23:52:28.192Z,6.30
2023-05-23T23:54:55.367Z,6.72
2023-05-23T23:57:22.458Z,5.85
2023-05-23T23:59:49.532Z,7.00
